Data for 12/25/2009

Time Sea-Level Adjusted Pressure Absolute Pressure Temperature Relative Humidity Dew Point Precipitation   
(mb) (inHg) (mb) (inHg) (C) (F) (%) (C) (F) (mm) (in)
12:13 1025 30.27 854 25.22 -6.4 20.6 81 -9.1 15.5 -6.19 -0.244
12:14 1025 30.27 854 25.22 -6.3 20.6 80 -9.2 15.4 -6.234 -0.245
12:15 1025 30.27 854 25.22 -6.3 20.6 80 -9.2 15.4 -6.214 -0.245
12:16 1025 30.27 854 25.22 -6.3 20.6 80 -9.3 15.3 -6.231 -0.245
12:17 1025 30.27 854 25.22 -6.4 20.6 80 -9.3 15.3 -6.231 -0.245
12:18 1025 30.27 854 25.22 -6.4 20.5 80 -9.3 15.3 -6.168 -0.243
12:19 1025 30.27 854 25.22 -6.4 20.5 79 -9.4 15.1 -6.191 -0.244
12:20 1025 30.27 854 25.22 -6.3 20.7 80 -9.3 15.3 -6.129 -0.241
12:21 1025 30.27 854 25.22 -6.2 20.8 79 -9.3 15.3 -6.039 -0.238
12:22 1025 30.27 854 25.22 -6.1 20.9 79 -9.2 15.4 -6.011 -0.237
12:23 1025 30.27 854 25.22 -6.1 21 78 -9.3 15.3 -5.948 -0.234
12:24 1025 30.27 854 25.22 -6 21.2 78 -9.3 15.2 -5.892 -0.232
12:25 1025 30.27 854 25.22 -6 21.2 78 -9.3 15.2 -5.847 -0.23
12:26 1025 30.27 854 25.22 -5.9 21.3 77 -9.3 15.3 -5.757 -0.227
12:27 1025 30.27 854 25.22 -5.9 21.4 77 -9.3 15.3 -5.768 -0.227
12:28 1024 30.24 854 25.22 -5.8 21.5 77 -9.3 15.2 -5.785 -0.228
12:29 1024 30.24 854 25.22 -5.8 21.6 77 -9.3 15.3 -5.684 -0.224
12:30 1024 30.24 854 25.22 -5.7 21.7 77 -9.2 15.5 -5.576 -0.22
12:31 1024 30.24 854 25.22 -5.6 21.9 77 -9 15.7 -5.429 -0.214
12:32 1024 30.24 854 25.22 -5.5 22.2 76 -9 15.8 -5.236 -0.206
12:33 1024 30.24 854 25.22 -5.3 22.4 75 -9.1 15.7 -5.078 -0.2
12:34 1024 30.24 854 25.22 -5.3 22.4 75 -9.1 15.6 -4.981 -0.196
12:35 1024 30.24 854 25.22 -5.3 22.5 75 -9 15.7 -4.919 -0.194
12:36 1024 30.24 854 25.22 -5.2 22.7 74 -9 15.7 -4.812 -0.189
12:37 1025 30.27 854 25.22 -5 23 73 -9.1 15.6 -4.772 -0.188
12:38 1025 30.27 854 25.22 -5.1 22.8 72 -9.4 15.2 -4.744 -0.187
12:39 1025 30.27 854 25.22 -5.4 22.3 73 -9.5 14.9 -4.744 -0.187
12:40 1025 30.27 854 25.22 -5.6 21.9 74 -9.5 14.9 -4.772 -0.188
12:41 1025 30.27 854 25.22 -5.9 21.4 76 -9.5 14.8 -4.971 -0.196
12:42 1025 30.27 854 25.22 -6 21.1 77 -9.5 14.9 -5.232 -0.206
12:43 1024 30.24 854 25.22 -6.2 20.8 78 -9.5 15 -5.39 -0.212
12:44 1024 30.24 854 25.22 -6.3 20.6 79 -9.4 15 -5.555 -0.219
12:45 1024 30.24 854 25.22 -6.4 20.5 80 -9.3 15.3 -5.657 -0.223
12:46 1024 30.24 854 25.22 -6.4 20.4 81 -9.2 15.4 -5.685 -0.224
12:47 1024 30.24 854 25.22 -6.4 20.5 81 -9.2 15.4 -5.737 -0.226
12:48 1024 30.24 854 25.22 -6.4 20.4 81 -9.3 15.3 -5.755 -0.227
12:49 1024 30.24 854 25.22 -6.4 20.5 81 -9.2 15.4 -5.794 -0.228
12:50 1025 30.27 854 25.22 -6.3 20.6 81 -9.1 15.6 -5.75 -0.226
12:51 1025 30.27 854 25.22 -6.2 20.8 81 -9 15.7 -5.597 -0.22
12:52 1025 30.27 854 25.22 -6.1 21 80 -9 15.8 -5.427 -0.214
12:53 1025 30.27 854 25.22 -5.9 21.3 80 -8.9 15.9 -5.32 -0.209
12:54 1025 30.27 854 25.22 -5.8 21.5 79 -8.9 15.9 -5.207 -0.205
12:55 1025 30.27 854 25.22 -5.8 21.6 78 -9.1 15.6 -5.094 -0.201
12:56 1025 30.27 854 25.22 -5.8 21.6 77 -9.2 15.4 -5.157 -0.203
12:57 1025 30.27 854 25.22 -5.9 21.4 77 -9.3 15.2 -5.264 -0.207
12:58 1025 30.27 854 25.22 -6 21.2 78 -9.3 15.3 -5.395 -0.212
12:59 1025 30.27 854 25.22 -6.1 21 78 -9.3 15.3 -5.457 -0.215
13:00 1024 30.24 854 25.22 -6.1 20.9 79 -9.3 15.3 -5.531 -0.218
13:01 1024 30.24 854 25.22 -6.1 21 79 -9.2 15.4 -5.441 -0.214
13:02 1024 30.24 854 25.22 -6 21.1 78 -9.2 15.4 -5.373 -0.212
13:03 1024 30.24 854 25.22 -6 21.2 78 -9.2 15.4 -5.316 -0.209
13:04 1024 30.24 854 25.22 -6 21.1 78 -9.3 15.2 -5.373 -0.212
13:05 1024 30.24 854 25.22 -6.1 21 78 -9.4 15.1 -5.475 -0.216
13:06 1024 30.24 854 25.22 -6.1 21 78 -9.3 15.2 -5.487 -0.216
13:07 1024 30.24 854 25.22 -6.2 20.9 78 -9.3 15.2 -5.487 -0.216
13:08 1024 30.24 854 25.22 -6.1 20.9 78 -9.3 15.2 -5.481 -0.216
13:09 1024 30.24 854 25.22 -6.1 21.1 78 -9.3 15.3 -5.396 -0.212
13:10 1025 30.27 854 25.22 -6 21.2 77 -9.4 15.2 -5.408 -0.213
13:11 1025 30.27 854 25.22 -6 21.2 77 -9.4 15 -5.419 -0.213
13:12 1025 30.27 854 25.22 -6 21.2 77 -9.4 15.1 -5.277 -0.208
13:13 1025 30.27 854 25.22 -6 21.2 77 -9.4 15 -5.136 -0.202
13:14 1025 30.27 854 25.22 -5.9 21.3 76 -9.5 14.9 -5.011 -0.197
13:15 1025 30.27 854 25.22 -5.9 21.3 76 -9.4 15 -4.847 -0.191
13:16 1024 30.24 854 25.22 -6 21.3 76 -9.5 14.9 -4.864 -0.191
13:17 1024 30.24 854 25.22 -6 21.3 76 -9.5 15 -5 -0.197
13:18 1024 30.24 854 25.22 -6 21.2 76 -9.5 14.9 -5.096 -0.201
13:19 1024 30.24 854 25.22 -6 21.3 75 -9.6 14.6 -5.159 -0.203
13:20 1025 30.27 854 25.22 -6 21.2 74 -9.8 14.3 -5.221 -0.206
13:21 1025 30.27 854 25.22 -6 21.2 74 -9.9 14.2 -5.255 -0.207
13:22 1025 30.27 854 25.22 -6 21.2 75 -9.7 14.5 -5.318 -0.209
13:23 1025 30.27 854 25.22 -6 21.1 76 -9.7 14.6 -5.346 -0.21
13:24 1025 30.27 854 25.22 -6.1 21 77 -9.5 14.8 -5.42 -0.213
13:25 1025 30.27 854 25.22 -6.2 20.9 78 -9.4 15.1 -5.482 -0.216
13:26 1025 30.27 854 25.22 -6.3 20.7 79 -9.3 15.2 -5.601 -0.221
13:27 1025 30.27 854 25.22 -6.3 20.6 80 -9.3 15.2 -5.675 -0.223
13:28 1025 30.27 854 25.22 -6.4 20.5 80 -9.3 15.2 -5.714 -0.225
13:29 1025 30.27 854 25.22 -6.4 20.4 80 -9.4 15.1 -5.788 -0.228
13:30 1025 30.27 854 25.22 -6.4 20.5 79 -9.4 15 -5.782 -0.228
13:31 1025 30.27 854 25.22 -6.4 20.5 79 -9.4 15 -5.805 -0.229
13:32 1025 30.27 854 25.22 -6.4 20.6 78 -9.5 14.9 -5.805 -0.229
13:33 1025 30.27 854 25.22 -6.4 20.5 78 -9.6 14.7 -5.788 -0.228
13:34 1025 30.27 854 25.22 -6.3 20.6 78 -9.6 14.8 -5.771 -0.227
13:35 1025 30.27 854 25.22 -6.3 20.7 78 -9.6 14.8 -5.765 -0.227
13:36 1025 30.27 854 25.22 -6.3 20.7 77 -9.6 14.6 -5.782 -0.228
13:37 1025 30.27 854 25.22 -6.3 20.6 77 -9.8 14.4 -5.771 -0.227
13:38 1025 30.27 854 25.22 -6.3 20.7 77 -9.7 14.6 -5.788 -0.228
13:39 1025 30.27 854 25.22 -6.3 20.7 77 -9.7 14.5 -5.76 -0.227
13:40 1025 30.27 854 25.22 -6.2 20.8 77 -9.6 14.7 -5.709 -0.225
13:41 1025 30.27 854 25.22 -6.2 20.8 77 -9.7 14.6 -5.681 -0.224
13:42 1025 30.27 854 25.22 -6.2 20.9 77 -9.5 14.9 -5.618 -0.221
13:43 1025 30.27 854 25.22 -6.1 21 77 -9.5 14.8 -5.533 -0.218
13:44 1025 30.27 854 25.22 -6.1 21 77 -9.6 14.7 -5.511 -0.217
13:45 1025 30.27 854 25.22 -6.1 21 76 -9.6 14.7 -5.505 -0.217
13:46 1025 30.27 854 25.22 -6.1 21.1 76 -9.7 14.6 -5.471 -0.215
13:47 1025 30.27 854 25.22 -6 21.1 75 -9.8 14.4 -5.46 -0.215
13:48 1025 30.27 854 25.22 -6 21.2 76 -9.5 14.8 -5.414 -0.213
13:49 1025 30.27 854 25.22 -6 21.3 76 -9.6 14.7 -5.346 -0.21
13:50 1025 30.27 854 25.22 -5.9 21.4 74 -9.8 14.4 -5.301 -0.209
13:51 1025 30.27 854 25.22 -5.8 21.5 73 -9.9 14.3 -5.273 -0.208
13:52 1025 30.27 854 25.22 -5.8 21.6 73 -9.9 14.1 -5.199 -0.205
13:53 1025 30.27 854 25.22 -5.7 21.7 72 -10 14.1 -5.148 -0.203
13:54 1025 30.27 854 25.22 -5.7 21.7 72 -9.9 14.1 -5.086 -0.2
13:55 1025 30.27 854 25.22 -5.7 21.7 73 -9.9 14.2 -5.091 -0.2
13:56 1025 30.27 854 25.22 -5.7 21.7 73 -9.8 14.3 -5.086 -0.2
13:57 1025 30.27 854 25.22 -5.7 21.7 73 -9.8 14.3 -5.08 -0.2
13:58 1025 30.27 854 25.22 -5.7 21.7 73 -9.9 14.2 -5.12 -0.202
13:59 1025 30.27 854 25.22 -5.8 21.6 73 -9.8 14.3 -5.205 -0.205
14:00 1025 30.27 854 25.22 -5.8 21.5 74 -9.8 14.4 -5.199 -0.205
14:01 1025 30.27 854 25.22 -5.8 21.5 74 -9.7 14.5 -5.222 -0.206
14:02 1025 30.27 854 25.22 -5.8 21.5 74 -9.8 14.3 -5.222 -0.206
14:03 1025 30.27 854 25.22 -5.9 21.4 73 -10.1 13.9 -5.267 -0.207
14:04 1025 30.27 854 25.22 -5.8 21.5 74 -9.8 14.4 -5.301 -0.209
14:05 1025 30.27 854 25.22 -5.8 21.5 75 -9.6 14.7 -5.273 -0.208
14:06 1025 30.27 854 25.22 -5.8 21.5 74 -9.7 14.6 -5.25 -0.207
14:07 1025 30.27 854 25.22 -5.8 21.5 74 -9.7 14.6 -5.227 -0.206
14:08 1025 30.27 854 25.22 -5.9 21.5 73 -10 14 -5.273 -0.208
14:09 1025 30.27 854 25.22 -5.9 21.4 73 -10.1 13.9 -5.295 -0.208
14:10 1025 30.27 854 25.22 -5.9 21.4 73 -10 14 -5.295 -0.208
14:11 1025 30.27 854 25.22 -5.8 21.5 72 -10.1 13.8 -5.307 -0.209
14:12 1025 30.27 854 25.22 -5.8 21.6 72 -10 14.1 -5.324 -0.21
14:13 1025 30.27 854 25.22 -5.7 21.8 74 -9.7 14.6 -5.295 -0.208
14:14 1025 30.27 854 25.22 -5.6 21.9 74 -9.5 14.9 -5.261 -0.207
14:15 1025 30.27 854 25.22 -5.3 22.4 73 -9.4 15.1 -5.08 -0.2
14:16 1025 30.27 854 25.22 -5 23 72 -9.3 15.2 -4.797 -0.189
14:17 1025 30.27 854 25.22 -4.7 23.5 69 -9.5 14.8 -4.593 -0.181
14:18 1025 30.27 854 25.22 -4.6 23.8 67 -9.8 14.4 -4.57 -0.18
14:19 1025 30.27 854 25.22 -4.5 23.8 67 -9.8 14.4 -4.604 -0.181
14:20 1025 30.27 854 25.22 -4.5 24 67 -9.7 14.5 -4.644 -0.183
14:21 1025 30.27 854 25.22 -4.3 24.3 66 -9.7 14.5 -4.576 -0.18
14:22 1025 30.27 854 25.22 -4.1 24.6 65 -9.7 14.5 -4.474 -0.176
14:23 1025 30.27 854 25.22 -4 24.8 64 -9.9 14.2 -4.462 -0.176
14:24 1025 30.27 854 25.22 -4.1 24.6 64 -10 14 -4.536 -0.179
14:25 1025 30.27 854 25.22 -4.3 24.3 64 -10.1 13.9 -4.638 -0.183
14:26 1025 30.27 854 25.22 -4.4 24.1 64 -10.2 13.7 -4.797 -0.189
14:27 1025 30.27 854 25.22 -4.6 23.7 65 -10.1 13.8 -4.916 -0.194
14:28 1025 30.27 854 25.22 -4.8 23.3 67 -10.1 13.8 -5.063 -0.199
14:29 1025 30.27 854 25.22 -5.1 22.9 68 -10.1 13.7 -5.256 -0.207
14:30 1025 30.27 854 25.22 -5.3 22.4 69 -10.2 13.7 -5.392 -0.212
14:31 1025 30.27 854 25.22 -5.5 22.1 70 -10.1 13.8 -5.505 -0.217
14:32 1025 30.27 854 25.22 -5.7 21.8 71 -10.1 13.8 -5.607 -0.221
14:33 1025 30.27 854 25.22 -5.8 21.6 70 -10.4 13.3 -5.641 -0.222
14:34 1025 30.27 854 25.22 -6 21.3 71 -10.3 13.4 -5.698 -0.224
14:35 1025 30.27 854 25.22 -5.9 21.3 72 -10.2 13.7 -5.664 -0.223
14:36 1025 30.27 854 25.22 -5.8 21.5 72 -10.1 13.9 -5.567 -0.219
14:37 1025 30.27 854 25.22 -5.7 21.8 71 -10.1 13.8 -5.494 -0.216
14:38 1025 30.27 854 25.22 -5.6 21.9 71 -10.1 13.9 -5.375 -0.212
14:39 1025 30.27 854 25.22 -5.5 22.1 71 -10 14 -5.307 -0.209
14:40 1025 30.27 854 25.22 -5.4 22.3 70 -10.1 13.9 -5.125 -0.202
14:41 1025 30.27 854 25.22 -5.3 22.5 68 -10.2 13.6 -5.091 -0.2
14:42 1025 30.27 854 25.22 -5.2 22.6 67 -10.3 13.4 -5.091 -0.2
14:43 1025 30.27 854 25.22 -5.2 22.7 67 -10.4 13.3 -5.148 -0.203
14:44 1025 30.27 854 25.22 -5.2 22.7 67 -10.4 13.2 -5.21 -0.205
14:45 1025 30.27 854 25.22 -5.2 22.7 67 -10.4 13.2 -5.227 -0.206
14:46 1025 30.27 854 25.22 -5.3 22.5 67 -10.5 13.1 -5.256 -0.207
14:47 1025 30.27 854 25.22 -5.3 22.4 67 -10.6 13 -5.335 -0.21
14:48 1025 30.27 854 25.22 -5.4 22.3 67 -10.6 13 -5.392 -0.212
14:49 1025 30.27 854 25.22 -5.5 22.1 68 -10.6 13 -5.499 -0.216
14:50 1025 30.27 854 25.22 -5.6 21.9 68 -10.5 13 -5.573 -0.219
14:51 1025 30.27 854 25.22 -5.8 21.6 69 -10.5 13 -5.681 -0.224
14:52 1025 30.27 854 25.22 -5.9 21.4 70 -10.6 13 -5.76 -0.227
14:53 1025 30.27 854 25.22 -6 21.1 69 -10.8 12.6 -5.89 -0.232
14:54 1025 30.27 854 25.22 -6.2 20.9 70 -10.8 12.5 -6.038 -0.238
14:55 1025 30.27 854 25.22 -6.3 20.7 70 -10.8 12.5 -6.106 -0.24
14:56 1025 30.27 854 25.22 -6.4 20.5 71 -10.9 12.4 -6.168 -0.243
14:57 1025 30.27 854 25.22 -6.5 20.4 71 -11 12.3 -6.225 -0.245
14:58 1025 30.27 854 25.22 -6.5 20.2 71 -11 12.3 -6.264 -0.247
14:59 1025 30.27 854 25.22 -6.6 20.2 71 -10.9 12.3 -6.304 -0.248
15:00 1025 30.27 854 25.22 -6.6 20.1 72 -10.9 12.4 -6.361 -0.25
15:01 1025 30.27 854 25.22 -6.6 20.1 72 -10.9 12.4 -6.332 -0.249
15:02 1025 30.27 854 25.22 -6.6 20.1 72 -10.9 12.5 -6.315 -0.249
15:03 1025 30.27 854 25.22 -6.6 20.2 72 -10.9 12.4 -6.253 -0.246
15:04 1025 30.27 854 25.22 -6.5 20.2 71 -10.9 12.3 -6.168 -0.243
15:05 1025 30.27 854 25.22 -6.6 20.1 70 -11.2 11.9 -6.089 -0.24
15:06 1025 30.27 854 25.22 -6.8 19.7 71 -11.3 11.6 -6.162 -0.243
15:07 1025 30.27 854 25.22 -7.1 19.3 72 -11.4 11.6 -6.366 -0.251
15:08 1025 30.27 854 25.22 -7.2 19 73 -11.3 11.7 -6.536 -0.257
15:09 1025 30.27 854 25.22 -7.4 18.6 74 -11.3 11.6 -6.769 -0.266
15:10 1025 30.27 854 25.22 -7.6 18.4 75 -11.3 11.6 -6.973 -0.275
15:11 1025 30.27 854 25.22 -7.7 18.2 75 -11.3 11.7 -7.11 -0.28
15:12 1025 30.27 854 25.22 -7.7 18.1 75 -11.4 11.5 -7.18 -0.283
15:13 1025 30.27 854 25.22 -7.8 18 75 -11.4 11.5 -7.24 -0.285
15:14 1025 30.27 854 25.22 -7.7 18.1 76 -11.3 11.6 -7.26 -0.286
15:15 1025 30.27 854 25.22 -7.7 18.1 75 -11.3 11.6 -7.22 -0.284
15:16 1025 30.27 854 25.22 -7.7 18.2 75 -11.4 11.5 -7.17 -0.282
15:17 1025 30.27 854 25.22 -7.7 18.2 74 -11.6 11.2 -7.15 -0.281
15:18 1025 30.27 854 25.22 -7.8 18 73 -11.8 10.8 -7.24 -0.285
15:19 1025 30.27 854 25.22 -8 17.7 74 -11.8 10.8 -7.43 -0.293
15:20 1025 30.27 854 25.22 -8.1 17.5 76 -11.6 11.1 -7.51 -0.296
15:21 1025 30.27 854 25.22 -8.1 17.4 76 -11.6 11.2 -7.54 -0.297
15:22 1025 30.27 854 25.22 -8 17.7 76 -11.4 11.4 -7.45 -0.293
15:23 1025 30.27 854 25.22 -7.9 17.9 76 -11.4 11.4 -7.36 -0.29
15:24 1025 30.27 854 25.22 -7.7 18.1 75 -11.4 11.5 -7.24 -0.285
15:25 1025 30.27 854 25.22 -7.6 18.3 75 -11.3 11.6 -7.15 -0.281
15:26 1025 30.27 854 25.22 -7.5 18.5 75 -11.3 11.7 -7.06 -0.278
15:27 1025 30.27 854 25.22 -7.4 18.7 74 -11.3 11.7 -6.96 -0.274
15:28 1025 30.27 854 25.22 -7.3 18.9 74 -11.2 11.8 -6.863 -0.27
15:29 1025 30.27 854 25.22 -7.2 19 73 -11.3 11.7 -6.778 -0.267
15:30 1025 30.27 854 25.22 -7.2 19.1 73 -11.3 11.7 -6.744 -0.266
15:31 1025 30.27 854 25.22 -7.2 19.1 73 -11.3 11.7 -6.704 -0.264
15:32 1025 30.27 854 25.22 -7.1 19.2 72 -11.3 11.7 -6.687 -0.263
15:33 1025 30.27 854 25.22 -7.1 19.3 72 -11.3 11.7 -6.624 -0.261
15:34 1025 30.27 854 25.22 -7.1 19.2 72 -11.3 11.6 -6.652 -0.262
15:35 1025 30.27 854 25.22 -7.2 19.1 72 -11.3 11.6 -6.726 -0.265
15:36 1025 30.27 854 25.22 -7.1 19.2 72 -11.3 11.7 -6.76 -0.266
15:37 1025 30.27 854 25.22 -7 19.4 72 -11.2 11.8 -6.578 -0.259
15:38 1025 30.27 854 25.22 -6.9 19.6 71 -11.3 11.7 -6.357 -0.25
15:39 1025 30.27 854 25.22 -6.7 19.9 71 -11.2 11.8 -6.102 -0.24
15:40 1025 30.27 854 25.22 -6.6 20 70 -11.2 11.8 -5.914 -0.233
15:41 1025 30.27 854 25.22 -6.6 20.2 69 -11.3 11.7 -5.733 -0.226
15:42 1025 30.27 854 25.22 -6.5 20.3 69 -11.3 11.7 -5.518 -0.217
15:43 1025 30.27 854 25.22 -6.5 20.3 69 -11.3 11.6 -5.489 -0.216
15:44 1025 30.27 854 25.22 -6.7 20 69 -11.5 11.4 -5.67 -0.223
15:45 1025 30.27 854 25.22 -6.9 19.6 70 -11.5 11.4 -5.993 -0.236
15:46 1025 30.27 854 25.22 -7.1 19.3 71 -11.5 11.4 -6.26 -0.246
15:47 1025 30.27 854 25.22 -7.1 19.1 72 -11.5 11.4 -6.424 -0.253
15:48 1025 30.27 854 25.22 -7.2 19.1 72 -11.4 11.5 -6.543 -0.258
15:49 1025 30.27 854 25.22 -7.2 19 72 -11.4 11.4 -6.604 -0.26
15:50 1025 30.27 854 25.22 -7.2 19 72 -11.4 11.4 -6.661 -0.262
15:51 1025 30.27 854 25.22 -7.2 19 72 -11.4 11.4 -6.723 -0.265
15:52 1025 30.27 854 25.22 -7.3 18.8 72 -11.5 11.3 -6.779 -0.267
15:53 1025 30.27 854 25.22 -7.5 18.6 73 -11.6 11.2 -6.954 -0.274
15:54 1025 30.27 854 25.22 -7.6 18.4 74 -11.5 11.3 -7.07 -0.278